Rotan, Texas
Current Conditions -  °F | °C
As of 12:35 PM on Saturday 25 Oct 2014 (Local Time) from KSWW Reporting Station
Clear Clear  
Wind Chill: 27°   Ceiling: Unl
Heat Index: 27°   Visibility: 10mi
Dew Point: 13°   Wind: 9mph
Humidity: 40%   Direction: 200°SSW
Pressure: 30.21"   Gusts: NA
Location:  32.85°N, 100.47°W
Report Text: KSWW 251735Z AUTO 20008KT 10SM CLR 27/13 A3021 RMK AO2 T02710125
Loading
Personal Weather Stations






























Interactive Weather Map
Tropical Storm Tracking
New forecast layout! Learn more

10-Day Weather Forecast

Advertisements
Track Severe Weather on mobile